sensor_id;sensor_type;location;lat;lon;timestamp;pressure;altitude;pressure_sealevel;temperature;humidity
37202;BME280;37799;52.390;6.136;2022-10-17T00:00:19;101687.41;;;13.52;100.00
37202;BME280;37799;52.390;6.136;2022-10-17T00:02:44;101683.69;;;13.63;100.00
37202;BME280;37799;52.390;6.136;2022-10-17T00:05:10;101684.63;;;13.60;100.00
37202;BME280;37799;52.390;6.136;2022-10-17T00:07:36;101693.25;;;13.62;100.00
37202;BME280;37799;52.390;6.136;2022-10-17T00:10:01;101686.50;;;13.55;100.00
37202;BME280;37799;52.390;6.136;2022-10-17T00:12:27;101679.44;;;13.60;100.00
37202;BME280;37799;52.390;6.136;2022-10-17T00:14:52;101680.28;;;13.61;100.00
37202;BME280;37799;52.390;6.136;2022-10-17T00:17:17;101678.72;;;13.53;100.00
37202;BME280;37799;52.390;6.136;2022-10-17T00:19:43;101677.69;;;13.61;100.00
37202;BME280;37799;52.390;6.136;2022-10-17T00:22:08;101679.50;;;13.57;100.00
37202;BME280;37799;52.390;6.136;2022-10-17T00:24:33;101673.47;;;13.56;100.00
37202;BME280;37799;52.390;6.136;2022-10-17T00:26:59;101667.53;;;13.50;100.00
37202;BME280;37799;52.390;6.136;2022-10-17T00:29:24;101659.94;;;13.42;100.00
37202;BME280;37799;52.390;6.136;2022-10-17T00:31:54;101658.22;;;13.41;100.00
37202;BME280;37799;52.390;6.136;2022-10-17T00:34:19;101652.03;;;13.45;100.00
37202;BME280;37799;52.390;6.136;2022-10-17T00:36:45;101653.03;;;13.41;100.00
37202;BME280;37799;52.390;6.136;2022-10-17T00:39:10;101653.84;;;13.43;100.00
37202;BME280;37799;52.390;6.136;2022-10-17T00:41:35;101652.31;;;13.35;100.00
37202;BME280;37799;52.390;6.136;2022-10-17T00:46:51;101653.25;;;13.32;100.00
37202;BME280;37799;52.390;6.136;2022-10-17T00:49:16;101661.84;;;13.34;100.00
37202;BME280;37799;52.390;6.136;2022-10-17T00:51:46;101659.63;;;13.17;100.00
37202;BME280;37799;52.390;6.136;2022-10-17T00:54:15;101662.28;;;13.16;100.00
37202;BME280;37799;52.390;6.136;2022-10-17T00:56:42;101661.53;;;13.09;100.00
37202;BME280;37799;52.390;6.136;2022-10-17T00:59:10;101649.44;;;13.08;100.00
37202;BME280;37799;52.390;6.136;2022-10-17T01:01:36;101655.66;;;13.03;100.00
37202;BME280;37799;52.390;6.136;2022-10-17T01:04:02;101647.84;;;13.01;100.00
37202;BME280;37799;52.390;6.136;2022-10-17T01:06:27;101650.44;;;13.03;100.00
37202;BME280;37799;52.390;6.136;2022-10-17T01:08:53;101651.25;;;13.05;100.00
37202;BME280;37799;52.390;6.136;2022-10-17T01:16:44;101640.16;;;12.96;100.00
37202;BME280;37799;52.390;6.136;2022-10-17T01:21:59;101630.75;;;12.92;100.00
37202;BME280;37799;52.390;6.136;2022-10-17T01:27:20;101633.34;;;12.92;100.00
37202;BME280;37799;52.390;6.136;2022-10-17T01:30:02;101632.50;;;12.92;100.00
37202;BME280;37799;52.390;6.136;2022-10-17T01:32:39;101639.31;;;12.96;100.00
37202;BME280;37799;52.390;6.136;2022-10-17T01:35:28;101647.47;;;13.19;100.00
37202;BME280;37799;52.390;6.136;2022-10-17T01:38:20;101649.38;;;13.11;100.00
37202;BME280;37799;52.390;6.136;2022-10-17T01:40:54;101644.94;;;13.15;100.00
37202;BME280;37799;52.390;6.136;2022-10-17T01:43:25;101636.41;;;13.10;100.00
37202;BME280;37799;52.390;6.136;2022-10-17T01:48:44;101628.44;;;13.17;100.00
37202;BME280;37799;52.390;6.136;2022-10-17T01:51:16;101614.53;;;13.20;100.00
37202;BME280;37799;52.390;6.136;2022-10-17T01:53:51;101606.78;;;13.17;100.00
37202;BME280;37799;52.390;6.136;2022-10-17T01:56:19;101599.88;;;13.16;100.00
37202;BME280;37799;52.390;6.136;2022-10-17T01:58:50;101598.97;;;13.18;100.00
37202;BME280;37799;52.390;6.136;2022-10-17T02:01:17;101596.41;;;13.15;100.00
37202;BME280;37799;52.390;6.136;2022-10-17T02:03:44;101591.13;;;13.20;100.00
37202;BME280;37799;52.390;6.136;2022-10-17T02:06:11;101597.13;;;13.22;100.00
37202;BME280;37799;52.390;6.136;2022-10-17T02:08:46;101599.44;;;13.34;100.00
37202;BME280;37799;52.390;6.136;2022-10-17T02:11:22;101598.63;;;13.32;100.00
37202;BME280;37799;52.390;6.136;2022-10-17T02:13:59;101590.72;;;13.35;100.00
37202;BME280;37799;52.390;6.136;2022-10-17T02:16:35;101598.56;;;13.34;100.00
37202;BME280;37799;52.390;6.136;2022-10-17T02:19:33;101587.00;;;13.45;100.00
37202;BME280;37799;52.390;6.136;2022-10-17T02:24:54;101584.34;;;13.47;100.00
37202;BME280;37799;52.390;6.136;2022-10-17T02:27:32;101584.53;;;13.39;100.00
37202;BME280;37799;52.390;6.136;2022-10-17T02:30:12;101580.09;;;13.44;100.00
37202;BME280;37799;52.390;6.136;2022-10-17T02:35:14;101569.84;;;13.38;100.00
37202;BME280;37799;52.390;6.136;2022-10-17T02:37:41;101574.88;;;13.44;100.00
37202;BME280;37799;52.390;6.136;2022-10-17T02:40:09;101570.59;;;13.43;100.00
37202;BME280;37799;52.390;6.136;2022-10-17T02:42:38;101567.22;;;13.38;100.00
37202;BME280;37799;52.390;6.136;2022-10-17T02:45:04;101556.09;;;13.33;100.00
37202;BME280;37799;52.390;6.136;2022-10-17T02:47:55;101551.84;;;13.31;100.00
37202;BME280;37799;52.390;6.136;2022-10-17T02:50:27;101556.19;;;13.30;100.00
37202;BME280;37799;52.390;6.136;2022-10-17T02:53:03;101562.13;;;13.35;100.00
37202;BME280;37799;52.390;6.136;2022-10-17T02:55:32;101549.50;;;13.52;100.00
37202;BME280;37799;52.390;6.136;2022-10-17T02:58:06;101557.50;;;13.46;100.00
37202;BME280;37799;52.390;6.136;2022-10-17T03:00:34;101573.91;;;13.48;100.00
37202;BME280;37799;52.390;6.136;2022-10-17T03:02:59;101564.41;;;13.47;100.00
37202;BME280;37799;52.390;6.136;2022-10-17T03:05:27;101565.97;;;13.54;100.00
37202;BME280;37799;52.390;6.136;2022-10-17T03:07:54;101567.75;;;13.51;100.00
37202;BME280;37799;52.390;6.136;2022-10-17T03:10:20;101564.97;;;13.58;100.00
37202;BME280;37799;52.390;6.136;2022-10-17T03:12:46;101556.66;;;13.77;100.00
37202;BME280;37799;52.390;6.136;2022-10-17T03:15:12;101553.16;;;13.78;100.00
37202;BME280;37799;52.390;6.136;2022-10-17T03:17:37;101551.28;;;13.83;100.00
37202;BME280;37799;52.390;6.136;2022-10-17T03:20:04;101541.53;;;13.90;100.00
37202;BME280;37799;52.390;6.136;2022-10-17T03:22:29;101542.41;;;13.90;100.00
37202;BME280;37799;52.390;6.136;2022-10-17T03:24:55;101550.22;;;13.90;100.00
37202;BME280;37799;52.390;6.136;2022-10-17T03:27:20;101551.00;;;13.92;100.00
37202;BME280;37799;52.390;6.136;2022-10-17T03:29:45;101548.28;;;13.97;100.00
37202;BME280;37799;52.390;6.136;2022-10-17T03:32:11;101555.50;;;14.16;100.00
37202;BME280;37799;52.390;6.136;2022-10-17T03:34:36;101554.00;;;14.09;100.00
37202;BME280;37799;52.390;6.136;2022-10-17T03:37:02;101557.31;;;14.14;100.00
37202;BME280;37799;52.390;6.136;2022-10-17T03:39:27;101555.94;;;14.32;100.00
37202;BME280;37799;52.390;6.136;2022-10-17T03:41:52;101552.84;;;14.20;100.00
37202;BME280;37799;52.390;6.136;2022-10-17T03:44:17;101562.31;;;14.22;100.00
37202;BME280;37799;52.390;6.136;2022-10-17T03:46:43;101558.00;;;14.21;100.00
37202;BME280;37799;52.390;6.136;2022-10-17T03:49:08;101560.38;;;14.29;100.00
37202;BME280;37799;52.390;6.136;2022-10-17T03:51:35;101560.38;;;14.29;100.00
37202;BME280;37799;52.390;6.136;2022-10-17T03:54:01;101572.22;;;14.39;100.00
37202;BME280;37799;52.390;6.136;2022-10-17T03:56:26;101565.47;;;14.32;100.00
37202;BME280;37799;52.390;6.136;2022-10-17T03:58:52;101558.44;;;14.35;100.00
37202;BME280;37799;52.390;6.136;2022-10-17T04:01:18;101565.47;;;14.33;100.00
37202;BME280;37799;52.390;6.136;2022-10-17T04:03:48;101568.91;;;14.34;100.00
37202;BME280;37799;52.390;6.136;2022-10-17T04:06:14;101564.63;;;14.31;100.00
37202;BME280;37799;52.390;6.136;2022-10-17T04:08:40;101560.25;;;14.33;100.00
37202;BME280;37799;52.390;6.136;2022-10-17T04:11:07;101565.47;;;14.32;100.00
37202;BME280;37799;52.390;6.136;2022-10-17T04:13:34;101562.47;;;14.47;100.00
37202;BME280;37799;52.390;6.136;2022-10-17T04:16:04;101557.00;;;14.55;100.00
37202;BME280;37799;52.390;6.136;2022-10-17T04:18:31;101570.09;;;14.53;100.00
37202;BME280;37799;52.390;6.136;2022-10-17T04:20:56;101571.03;;;14.51;100.00
37202;BME280;37799;52.390;6.136;2022-10-17T04:23:22;101574.50;;;14.51;100.00
37202;BME280;37799;52.390;6.136;2022-10-17T04:25:47;101574.41;;;14.54;100.00
37202;BME280;37799;52.390;6.136;2022-10-17T04:28:13;101573.59;;;14.52;100.00
37202;BME280;37799;52.390;6.136;2022-10-17T04:30:38;101571.72;;;14.56;100.00
37202;BME280;37799;52.390;6.136;2022-10-17T04:33:04;101563.06;;;14.55;100.00
37202;BME280;37799;52.390;6.136;2022-10-17T04:35:29;101558.84;;;14.51;100.00
37202;BME280;37799;52.390;6.136;2022-10-17T04:37:55;101555.97;;;14.60;100.00
37202;BME280;37799;52.390;6.136;2022-10-17T04:40:20;101563.66;;;14.65;100.00
37202;BME280;37799;52.390;6.136;2022-10-17T04:42:45;101563.69;;;14.63;100.00
37202;BME280;37799;52.390;6.136;2022-10-17T04:45:11;101554.97;;;14.64;100.00
37202;BME280;37799;52.390;6.136;2022-10-17T04:47:36;101557.53;;;14.66;100.00
37202;BME280;37799;52.390;6.136;2022-10-17T04:50:03;101557.34;;;14.72;100.00
37202;BME280;37799;52.390;6.136;2022-10-17T04:52:28;101568.56;;;14.74;100.00
37202;BME280;37799;52.390;6.136;2022-10-17T04:54:54;101573.00;;;14.70;100.00
37202;BME280;37799;52.390;6.136;2022-10-17T04:57:19;101574.91;;;14.65;100.00
37202;BME280;37799;52.390;6.136;2022-10-17T04:59:44;101560.94;;;14.68;100.00
37202;BME280;37799;52.390;6.136;2022-10-17T05:02:10;101553.16;;;14.66;100.00
37202;BME280;37799;52.390;6.136;2022-10-17T05:04:35;101575.59;;;14.72;100.00
37202;BME280;37799;52.390;6.136;2022-10-17T05:07:00;101569.53;;;14.71;100.00
37202;BME280;37799;52.390;6.136;2022-10-17T05:09:26;101576.63;;;14.66;100.00
37202;BME280;37799;52.390;6.136;2022-10-17T05:11:51;101573.84;;;14.72;100.00
37202;BME280;37799;52.390;6.136;2022-10-17T05:14:17;101579.75;;;14.78;100.00
37202;BME280;37799;52.390;6.136;2022-10-17T05:16:42;101575.09;;;14.87;100.00
37202;BME280;37799;52.390;6.136;2022-10-17T05:19:07;101578.69;;;14.83;100.00
37202;BME280;37799;52.390;6.136;2022-10-17T05:21:33;101575.34;;;14.80;100.00
37202;BME280;37799;52.390;6.136;2022-10-17T05:23:58;101584.69;;;14.87;100.00
37202;BME280;37799;52.390;6.136;2022-10-17T05:26:24;101598.69;;;14.83;100.00
37202;BME280;37799;52.390;6.136;2022-10-17T05:28:50;101589.91;;;14.87;100.00
37202;BME280;37799;52.390;6.136;2022-10-17T05:31:16;101596.88;;;14.86;100.00
37202;BME280;37799;52.390;6.136;2022-10-17T05:33:42;101602.09;;;14.86;100.00
37202;BME280;37799;52.390;6.136;2022-10-17T05:36:08;101601.94;;;14.91;100.00
37202;BME280;37799;52.390;6.136;2022-10-17T05:38:33;101606.34;;;14.89;100.00
37202;BME280;37799;52.390;6.136;2022-10-17T05:41:00;101612.56;;;14.85;100.00
37202;BME280;37799;52.390;6.136;2022-10-17T05:43:26;101619.97;;;14.98;100.00
37202;BME280;37799;52.390;6.136;2022-10-17T05:45:53;101616.63;;;14.93;100.00
37202;BME280;37799;52.390;6.136;2022-10-17T05:48:18;101618.38;;;14.93;100.00
37202;BME280;37799;52.390;6.136;2022-10-17T05:50:44;101611.28;;;14.98;100.00
37202;BME280;37799;52.390;6.136;2022-10-17T05:53:10;101598.41;;;14.92;100.00
37202;BME280;37799;52.390;6.136;2022-10-17T05:55:35;101601.72;;;14.97;100.00
37202;BME280;37799;52.390;6.136;2022-10-17T05:58:00;101608.47;;;15.04;100.00
37202;BME280;37799;52.390;6.136;2022-10-17T06:00:26;101609.47;;;15.00;100.00
37202;BME280;37799;52.390;6.136;2022-10-17T06:02:51;101621.56;;;15.02;100.00
37202;BME280;37799;52.390;6.136;2022-10-17T06:05:17;101622.41;;;15.03;100.00
37202;BME280;37799;52.390;6.136;2022-10-17T06:07:42;101622.41;;;15.03;100.00
37202;BME280;37799;52.390;6.136;2022-10-17T06:10:08;101620.66;;;15.03;100.00
37202;BME280;37799;52.390;6.136;2022-10-17T06:12:34;101627.56;;;15.04;100.00
37202;BME280;37799;52.390;6.136;2022-10-17T06:14:59;101619.59;;;15.09;100.00
37202;BME280;37799;52.390;6.136;2022-10-17T06:17:24;101616.97;;;15.11;100.00
37202;BME280;37799;52.390;6.136;2022-10-17T06:19:50;101615.09;;;15.14;100.00
37202;BME280;37799;52.390;6.136;2022-10-17T06:22:15;101616.81;;;15.15;100.00
37202;BME280;37799;52.390;6.136;2022-10-17T06:24:40;101609.03;;;15.14;100.00
37202;BME280;37799;52.390;6.136;2022-10-17T06:27:07;101610.69;;;15.16;100.00
37202;BME280;37799;52.390;6.136;2022-10-17T06:29:32;101611.47;;;15.18;100.00
37202;BME280;37799;52.390;6.136;2022-10-17T06:31:57;101620.16;;;15.19;100.00
37202;BME280;37799;52.390;6.136;2022-10-17T06:34:22;101627.81;;;15.23;100.00
37202;BME280;37799;52.390;6.136;2022-10-17T06:36:48;101624.22;;;15.27;100.00
37202;BME280;37799;52.390;6.136;2022-10-17T06:39:13;101625.63;;;15.38;100.00
37202;BME280;37799;52.390;6.136;2022-10-17T06:41:39;101625.72;;;15.34;100.00
37202;BME280;37799;52.390;6.136;2022-10-17T06:44:05;101631.19;;;15.27;100.00
37202;BME280;37799;52.390;6.136;2022-10-17T06:46:35;101640.56;;;15.32;100.00
37202;BME280;37799;52.390;6.136;2022-10-17T06:49:01;101648.16;;;15.40;100.00
37202;BME280;37799;52.390;6.136;2022-10-17T06:51:26;101653.28;;;15.43;100.00
37202;BME280;37799;52.390;6.136;2022-10-17T06:53:51;101654.81;;;15.49;100.00
37202;BME280;37799;52.390;6.136;2022-10-17T06:56:17;101655.72;;;15.48;100.00
37202;BME280;37799;52.390;6.136;2022-10-17T06:58:43;101652.75;;;15.58;100.00
37202;BME280;37799;52.390;6.136;2022-10-17T07:01:11;101652.47;;;15.68;100.00
37202;BME280;37799;52.390;6.136;2022-10-17T07:03:37;101650.03;;;15.63;100.00
37202;BME280;37799;52.390;6.136;2022-10-17T07:06:03;101654.13;;;15.70;100.00
37202;BME280;37799;52.390;6.136;2022-10-17T07:08:29;101648.75;;;15.75;100.00
37202;BME280;37799;52.390;6.136;2022-10-17T07:10:55;101659.06;;;15.79;100.00
37202;BME280;37799;52.390;6.136;2022-10-17T07:13:21;101665.06;;;15.81;100.00
37202;BME280;37799;52.390;6.136;2022-10-17T07:15:46;101679.88;;;15.81;100.00
37202;BME280;37799;52.390;6.136;2022-10-17T07:18:12;101686.69;;;15.85;100.00
37202;BME280;37799;52.390;6.136;2022-10-17T07:20:37;101682.03;;;15.95;100.00
37202;BME280;37799;52.390;6.136;2022-10-17T07:23:02;101685.38;;;15.98;100.00
37202;BME280;37799;52.390;6.136;2022-10-17T07:25:28;101682.50;;;16.06;100.00
37202;BME280;37799;52.390;6.136;2022-10-17T07:27:53;101682.63;;;16.03;100.00
37202;BME280;37799;52.390;6.136;2022-10-17T07:30:19;101690.34;;;16.06;100.00
37202;BME280;37799;52.390;6.136;2022-10-17T07:32:45;101692.16;;;16.04;100.00
37202;BME280;37799;52.390;6.136;2022-10-17T07:35:11;101691.38;;;16.02;100.00
37202;BME280;37799;52.390;6.136;2022-10-17T07:37:37;101688.75;;;16.02;100.00
37202;BME280;37799;52.390;6.136;2022-10-17T07:40:03;101700.78;;;16.06;100.00
37202;BME280;37799;52.390;6.136;2022-10-17T07:42:28;101710.03;;;16.14;100.00
37202;BME280;37799;52.390;6.136;2022-10-17T07:44:54;101717.94;;;16.13;100.00
37202;BME280;37799;52.390;6.136;2022-10-17T07:47:20;101722.00;;;16.21;100.00
37202;BME280;37799;52.390;6.136;2022-10-17T07:49:45;101722.69;;;16.27;100.00
37202;BME280;37799;52.390;6.136;2022-10-17T07:52:11;101715.69;;;16.27;100.00
37202;BME280;37799;52.390;6.136;2022-10-17T07:54:37;101708.56;;;16.32;100.00
37202;BME280;37799;52.390;6.136;2022-10-17T07:57:03;101704.00;;;16.37;100.00
37202;BME280;37799;52.390;6.136;2022-10-17T07:59:28;101695.50;;;16.32;100.00
37202;BME280;37799;52.390;6.136;2022-10-17T08:01:54;101686.47;;;16.41;100.00
37202;BME280;37799;52.390;6.136;2022-10-17T08:04:20;101686.34;;;16.44;100.00
37202;BME280;37799;52.390;6.136;2022-10-17T08:06:45;101679.47;;;16.41;100.00
37202;BME280;37799;52.390;6.136;2022-10-17T08:09:10;101681.97;;;16.44;100.00
37202;BME280;37799;52.390;6.136;2022-10-17T08:11:36;101693.16;;;16.48;100.00
37202;BME280;37799;52.390;6.136;2022-10-17T08:14:01;101697.31;;;16.53;100.00
37202;BME280;37799;52.390;6.136;2022-10-17T08:16:26;101705.97;;;16.56;100.00
37202;BME280;37799;52.390;6.136;2022-10-17T08:18:52;101726.19;;;16.50;100.00
37202;BME280;37799;52.390;6.136;2022-10-17T08:21:17;101744.47;;;16.50;100.00
37202;BME280;37799;52.390;6.136;2022-10-17T08:23:42;101747.69;;;16.59;100.00
37202;BME280;37799;52.390;6.136;2022-10-17T08:26:09;101754.81;;;16.53;100.00
37202;BME280;37799;52.390;6.136;2022-10-17T08:28:38;101771.22;;;16.59;100.00
37202;BME280;37799;52.390;6.136;2022-10-17T08:31:06;101794.34;;;16.71;100.00
37202;BME280;37799;52.390;6.136;2022-10-17T08:33:32;101809.72;;;16.80;100.00
37202;BME280;37799;52.390;6.136;2022-10-17T08:35:58;101836.38;;;16.90;100.00
37202;BME280;37799;52.390;6.136;2022-10-17T08:38:24;101836.81;;;16.77;100.00
37202;BME280;37799;52.390;6.136;2022-10-17T08:40:49;101840.97;;;16.83;100.00
37202;BME280;37799;52.390;6.136;2022-10-17T08:43:24;101853.75;;;16.91;100.00
37202;BME280;37799;52.390;6.136;2022-10-17T08:45:58;101849.88;;;16.77;100.00
37202;BME280;37799;52.390;6.136;2022-10-17T08:48:26;101839.72;;;16.70;100.00
37202;BME280;37799;52.390;6.136;2022-10-17T08:50:55;101841.25;;;16.75;100.00
37202;BME280;37799;52.390;6.136;2022-10-17T08:53:38;101849.81;;;16.79;100.00
37202;BME280;37799;52.390;6.136;2022-10-17T08:58:40;101852.50;;;16.77;100.00
37202;BME280;37799;52.390;6.136;2022-10-17T09:04:05;101834.91;;;16.83;100.00
37202;BME280;37799;52.390;6.136;2022-10-17T09:06:38;101842.38;;;16.93;100.00
37202;BME280;37799;52.390;6.136;2022-10-17T09:12:02;101842.03;;;16.77;100.00
37202;BME280;37799;52.390;6.136;2022-10-17T09:17:53;101854.19;;;16.80;100.00
37202;BME280;37799;52.390;6.136;2022-10-17T09:20:22;101856.00;;;17.01;100.00
37202;BME280;37799;52.390;6.136;2022-10-17T09:25:17;101870.84;;;17.01;100.00
37202;BME280;37799;52.390;6.136;2022-10-17T09:27:53;101895.44;;;16.97;100.00
37202;BME280;37799;52.390;6.136;2022-10-17T09:33:09;101894.47;;;16.99;100.00
37202;BME280;37799;52.390;6.136;2022-10-17T09:35:35;101887.84;;;16.89;100.00
37202;BME280;37799;52.390;6.136;2022-10-17T09:38:01;101883.03;;;16.77;100.00
37202;BME280;37799;52.390;6.136;2022-10-17T09:40:32;101864.72;;;16.77;100.00
37202;BME280;37799;52.390;6.136;2022-10-17T09:43:00;101852.50;;;16.77;100.00
37202;BME280;37799;52.390;6.136;2022-10-17T09:45:28;101834.03;;;16.82;100.00
37202;BME280;37799;52.390;6.136;2022-10-17T09:48:08;101859.13;;;16.88;100.00
37202;BME280;37799;52.390;6.136;2022-10-17T09:50:36;101863.50;;;16.87;100.00
37202;BME280;37799;52.390;6.136;2022-10-17T09:53:12;101863.19;;;16.96;100.00
37202;BME280;37799;52.390;6.136;2022-10-17T09:55:44;101866.09;;;16.87;100.00
37202;BME280;37799;52.390;6.136;2022-10-17T09:58:11;101883.69;;;16.84;100.00
37202;BME280;37799;52.390;6.136;2022-10-17T10:00:40;101896.91;;;16.79;100.00
37202;BME280;37799;52.390;6.136;2022-10-17T10:05:57;101907.47;;;16.76;100.00
37202;BME280;37799;52.390;6.136;2022-10-17T10:08:26;101919.75;;;16.74;100.00
37202;BME280;37799;52.390;6.136;2022-10-17T10:10:57;101939.09;;;16.70;100.00
37202;BME280;37799;52.390;6.136;2022-10-17T10:13:25;101933.06;;;16.68;100.00
37202;BME280;37799;52.390;6.136;2022-10-17T10:15:51;101925.22;;;16.66;100.00
37202;BME280;37799;52.390;6.136;2022-10-17T10:21:15;101881.31;;;16.76;100.00
37202;BME280;37799;52.390;6.136;2022-10-17T10:23:42;101857.09;;;16.71;100.00
37202;BME280;37799;52.390;6.136;2022-10-17T10:26:22;101856.31;;;16.69;100.00
37202;BME280;37799;52.390;6.136;2022-10-17T10:28:57;101861.59;;;16.67;100.00
37202;BME280;37799;52.390;6.136;2022-10-17T10:31:44;101864.53;;;16.83;100.00
37202;BME280;37799;52.390;6.136;2022-10-17T10:34:30;101872.31;;;16.85;100.00
37202;BME280;37799;52.390;6.136;2022-10-17T10:37:03;101890.56;;;16.86;100.00
37202;BME280;37799;52.390;6.136;2022-10-17T10:39:41;101902.84;;;16.84;100.00
37202;BME280;37799;52.390;6.136;2022-10-17T10:42:24;101905.34;;;16.87;100.00
37202;BME280;37799;52.390;6.136;2022-10-17T10:44:51;101916.47;;;16.94;100.00
37202;BME280;37799;52.390;6.136;2022-10-17T10:49:45;101928.22;;;16.82;100.00
37202;BME280;37799;52.390;6.136;2022-10-17T10:52:19;101945.63;;;16.83;100.00
37202;BME280;37799;52.390;6.136;2022-10-17T10:54:55;101935.72;;;16.91;100.00
37202;BME280;37799;52.390;6.136;2022-10-17T10:57:25;101954.88;;;16.93;100.00
37202;BME280;37799;52.390;6.136;2022-10-17T11:00:18;101948.81;;;16.91;100.00
37202;BME280;37799;52.390;6.136;2022-10-17T11:02:53;101960.91;;;16.95;100.00
37202;BME280;37799;52.390;6.136;2022-10-17T11:05:34;101957.25;;;16.99;100.00
37202;BME280;37799;52.390;6.136;2022-10-17T11:11:33;101963.75;;;17.13;100.00
37202;BME280;37799;52.390;6.136;2022-10-17T11:14:13;101977.53;;;17.18;100.00
37202;BME280;37799;52.390;6.136;2022-10-17T11:16:51;101979.34;;;17.16;100.00
37202;BME280;37799;52.390;6.136;2022-10-17T11:19:37;101986.09;;;17.23;100.00
37202;BME280;37799;52.390;6.136;2022-10-17T11:22:38;101991.22;;;17.26;100.00
37202;BME280;37799;52.390;6.136;2022-10-17T11:25:35;101999.00;;;17.27;100.00
37202;BME280;37799;52.390;6.136;2022-10-17T11:28:03;102011.06;;;17.31;100.00
37202;BME280;37799;52.390;6.136;2022-10-17T11:30:43;102019.09;;;17.27;100.00
37202;BME280;37799;52.390;6.136;2022-10-17T11:33:40;102011.66;;;17.15;100.00
37202;BME280;37799;52.390;6.136;2022-10-17T11:36:03;102007.88;;;17.23;100.00
37202;BME280;37799;52.390;6.136;2022-10-17T11:38:46;102012.63;;;17.12;100.00
37202;BME280;37799;52.390;6.136;2022-10-17T11:41:18;102009.16;;;17.12;100.00
37202;BME280;37799;52.390;6.136;2022-10-17T11:46:38;102012.47;;;17.17;100.00
37202;BME280;37799;52.390;6.136;2022-10-17T11:49:11;102010.81;;;17.14;100.00
37202;BME280;37799;52.390;6.136;2022-10-17T11:51:48;102011.53;;;17.19;100.00
37202;BME280;37799;52.390;6.136;2022-10-17T11:54:44;102015.63;;;17.26;100.00
37202;BME280;37799;52.390;6.136;2022-10-17T12:02:46;102016.19;;;17.59;100.00
37202;BME280;37799;52.390;6.136;2022-10-17T12:07:55;102020.59;;;17.59;100.00
37202;BME280;37799;52.390;6.136;2022-10-17T12:10:43;102029.28;;;17.59;100.00
37202;BME280;37799;52.390;6.136;2022-10-17T12:18:50;102032.38;;;17.71;100.00
37202;BME280;37799;52.390;6.136;2022-10-17T12:21:16;102037.34;;;17.78;100.00
37202;BME280;37799;52.390;6.136;2022-10-17T12:23:50;102028.06;;;17.69;100.00
37202;BME280;37799;52.390;6.136;2022-10-17T12:26:25;102030.28;;;17.80;100.00
37202;BME280;37799;52.390;6.136;2022-10-17T12:28:51;102028.31;;;17.87;100.00
37202;BME280;37799;52.390;6.136;2022-10-17T12:46:50;102037.53;;;17.97;100.00
37202;BME280;37799;52.390;6.136;2022-10-17T12:49:38;102049.53;;;18.03;100.00
37202;BME280;37799;52.390;6.136;2022-10-17T12:54:38;102048.03;;;17.97;100.00
37202;BME280;37799;52.390;6.136;2022-10-17T12:57:16;102049.94;;;17.92;100.00
37202;BME280;37799;52.390;6.136;2022-10-17T12:59:43;102050.59;;;17.98;100.00
37202;BME280;37799;52.390;6.136;2022-10-17T13:02:17;102056.16;;;17.89;100.00
37202;BME280;37799;52.390;6.136;2022-10-17T13:04:44;102054.16;;;17.73;100.00
37202;BME280;37799;52.390;6.136;2022-10-17T13:07:19;102054.25;;;17.69;100.00
37202;BME280;37799;52.390;6.136;2022-10-17T13:09:45;102052.53;;;17.68;100.00
37202;BME280;37799;52.390;6.136;2022-10-17T13:12:14;102045.56;;;17.67;100.00
37202;BME280;37799;52.390;6.136;2022-10-17T13:14:42;102055.16;;;17.68;100.00
37202;BME280;37799;52.390;6.136;2022-10-17T13:17:22;102058.72;;;17.66;100.00
37202;BME280;37799;52.390;6.136;2022-10-17T13:19:47;102061.91;;;17.76;100.00
37202;BME280;37799;52.390;6.136;2022-10-17T13:22:18;102060.03;;;17.79;100.00
37202;BME280;37799;52.390;6.136;2022-10-17T13:24:45;102068.75;;;17.80;100.00
37202;BME280;37799;52.390;6.136;2022-10-17T13:27:26;102068.25;;;17.68;100.00
37202;BME280;37799;52.390;6.136;2022-10-17T13:29:52;102072.44;;;17.74;100.00
37202;BME280;37799;52.390;6.136;2022-10-17T13:32:20;102079.50;;;17.72;100.00
37202;BME280;37799;52.390;6.136;2022-10-17T13:37:33;102086.22;;;17.79;100.00
37202;BME280;37799;52.390;6.136;2022-10-17T13:39:58;102084.47;;;17.80;100.00
37202;BME280;37799;52.390;6.136;2022-10-17T13:42:27;102082.06;;;17.74;100.00
37202;BME280;37799;52.390;6.136;2022-10-17T13:44:53;102087.59;;;17.64;100.00
37202;BME280;37799;52.390;6.136;2022-10-17T13:47:24;102086.91;;;17.59;100.00
37202;BME280;37799;52.390;6.136;2022-10-17T13:49:51;102095.69;;;17.58;100.00
37202;BME280;37799;52.390;6.136;2022-10-17T13:52:22;102108.88;;;17.55;100.00
37202;BME280;37799;52.390;6.136;2022-10-17T13:54:50;102110.69;;;17.53;100.00
37202;BME280;37799;52.390;6.136;2022-10-17T13:57:24;102113.38;;;17.52;100.00
37202;BME280;37799;52.390;6.136;2022-10-17T13:59:56;102123.22;;;17.45;100.00
37202;BME280;37799;52.390;6.136;2022-10-17T14:02:25;102128.34;;;17.48;100.00
37202;BME280;37799;52.390;6.136;2022-10-17T14:05:07;102128.75;;;17.36;100.00
37202;BME280;37799;52.390;6.136;2022-10-17T14:07:53;102127.34;;;17.26;100.00
37202;BME280;37799;52.390;6.136;2022-10-17T14:10:30;102139.78;;;17.46;100.00
37202;BME280;37799;52.390;6.136;2022-10-17T14:12:57;102142.97;;;17.54;100.00
37202;BME280;37799;52.390;6.136;2022-10-17T14:15:28;102152.94;;;17.43;100.00
37202;BME280;37799;52.390;6.136;2022-10-17T14:18:01;102153.91;;;17.14;100.00